Time;durP1;ratioP1;P1;durP2;ratioP2;P2;SDS_P1;SDS_P2;PMS_P1;PMS_P2;Temp;Humidity;BMP_temperature;BMP_pressure;BME280_temperature;BME280_humidity;BME280_pressure;Samples;Min_cycle;Max_cycle;Signal;HPM_P1;HPM_P2
2023/08/17 00:00:13;;;;;;;5.25;2.03;;;16.90;99.90;;;;;;4985911;28;20072;-70
2023/08/17 00:02:40;;;;;;;5.72;2.30;;;16.90;99.90;;;;;;5003826;28;20364;-70
2023/08/17 00:05:09;;;;;;;4.90;1.80;;;16.90;99.90;;;;;;4991109;28;20046;-70
2023/08/17 00:07:35;;;;;;;2.78;1.90;;;16.80;99.90;;;;;;4990458;28;20031;-70
2023/08/17 00:10:01;;;;;;;3.85;2.00;;;16.80;99.90;;;;;;4979004;28;20109;-69
2023/08/17 00:12:27;;;;;;;5.65;1.98;;;16.80;99.90;;;;;;4991477;28;20046;-70
2023/08/17 00:14:54;;;;;;;3.13;2.33;;;16.70;99.90;;;;;;4996020;28;20053;-73
2023/08/17 00:17:20;;;;;;;4.55;1.98;;;16.70;99.90;;;;;;4989987;28;20455;-77
2023/08/17 00:19:46;;;;;;;6.43;1.88;;;16.70;99.90;;;;;;4988566;28;20051;-69
2023/08/17 00:22:12;;;;;;;3.50;1.90;;;16.70;99.90;;;;;;4985667;28;20150;-67
2023/08/17 00:24:38;;;;;;;7.43;1.88;;;16.60;99.90;;;;;;4987835;28;20042;-69
2023/08/17 00:27:04;;;;;;;7.18;1.95;;;16.60;99.90;;;;;;4990073;28;20046;-69
2023/08/17 00:29:30;;;;;;;4.82;2.60;;;16.60;99.90;;;;;;4991740;28;20045;-69
2023/08/17 00:31:56;;;;;;;4.85;2.20;;;16.60;99.90;;;;;;4985924;28;20060;-70
2023/08/17 00:34:21;;;;;;;8.30;2.60;;;16.60;99.90;;;;;;4986109;28;20046;-69
2023/08/17 00:36:47;;;;;;;6.80;2.40;;;16.50;99.90;;;;;;4980051;28;20047;-69
2023/08/17 00:39:14;;;;;;;4.85;2.50;;;16.60;99.90;;;;;;5010978;22;20041;-71
2023/08/17 00:41:40;;;;;;;4.82;2.30;;;16.60;99.90;;;;;;5044809;28;20049;-70
2023/08/17 00:44:06;;;;;;;3.70;2.30;;;16.60;99.90;;;;;;5044011;28;20041;-71
2023/08/17 00:46:32;;;;;;;4.65;2.30;;;16.50;99.90;;;;;;5041668;28;20053;-73
2023/08/17 00:48:58;;;;;;;;;;;16.60;99.90;;;;;;5047441;28;20067;-73
2023/08/17 00:51:25;;;;;;;3.28;2.08;;;16.60;99.90;;;;;;5043502;28;19924;-74
2023/08/17 00:53:55;;;;;;;6.47;2.03;;;16.50;99.90;;;;;;5045377;28;20115;-83
2023/08/17 00:56:21;;;;;;;14.02;2.47;;;16.50;99.90;;;;;;5035023;28;20045;-73
2023/08/17 00:58:49;;;;;;;3.28;1.77;;;16.50;99.90;;;;;;5040002;28;20041;-73
2023/08/17 01:01:15;;;;;;;5.60;2.60;;;16.50;99.90;;;;;;5039477;28;20055;-73
2023/08/17 01:03:42;;;;;;;5.28;2.88;;;16.50;99.90;;;;;;5045269;28;20036;-73
2023/08/17 01:06:09;;;;;;;8.40;1.98;;;16.40;99.90;;;;;;5029047;28;20049;-73
2023/08/17 01:08:39;;;;;;;3.65;1.98;;;16.40;99.90;;;;;;5044712;28;20127;-73
2023/08/17 01:11:18;;;;;;;5.35;2.15;;;16.40;99.90;;;;;;5046235;28;20089;-73
2023/08/17 01:14:16;;;;;;;3.88;2.13;;;16.30;99.90;;;;;;5036833;28;20034;-73
2023/08/17 01:17:13;;;;;;;2.97;1.55;;;16.30;99.90;;;;;;5039271;28;20037;-73
2023/08/17 01:19:41;;;;;;;5.30;2.08;;;16.20;99.90;;;;;;5025263;28;20410;-73
2023/08/17 01:22:08;;;;;;;3.47;2.20;;;16.20;99.90;;;;;;5042924;28;20352;-73
2023/08/17 01:24:34;;;;;;;4.88;1.95;;;16.10;99.90;;;;;;5039936;28;20051;-73
2023/08/17 01:27:00;;;;;;;4.68;1.98;;;16.10;99.90;;;;;;5041265;28;20040;-73
2023/08/17 01:29:28;;;;;;;4.30;1.90;;;16.10;99.90;;;;;;5042848;28;20044;-73
2023/08/17 01:32:06;;;;;;;4.18;2.17;;;16.10;99.90;;;;;;5046432;28;20508;-74
2023/08/17 01:34:39;;;;;;;3.60;1.52;;;16.10;99.90;;;;;;5042107;28;20044;-73
2023/08/17 01:37:10;;;;;;;3.72;2.17;;;16.00;99.90;;;;;;5041854;28;20056;-73
2023/08/17 01:39:39;;;;;;;4.03;1.90;;;16.10;99.90;;;;;;5039248;28;20141;-73
2023/08/17 01:42:06;;;;;;;7.63;2.03;;;16.00;99.90;;;;;;5042747;28;20609;-73
2023/08/17 01:44:32;;;;;;;5.32;2.00;;;16.10;99.90;;;;;;5036217;28;20317;-73
2023/08/17 01:46:58;;;;;;;5.10;2.00;;;16.10;99.90;;;;;;5042891;28;20469;-73
2023/08/17 01:49:24;;;;;;;6.40;1.75;;;16.10;99.90;;;;;;5034135;28;20124;-73
2023/08/17 01:51:50;;;;;;;8.05;1.90;;;16.10;99.90;;;;;;5041152;28;20117;-73
2023/08/17 01:54:15;;;;;;;4.20;2.17;;;16.10;99.90;;;;;;5040934;28;20048;-73
2023/08/17 01:56:41;;;;;;;4.30;1.90;;;16.10;99.90;;;;;;5036827;28;20044;-73
2023/08/17 01:59:07;;;;;;;5.60;1.90;;;16.10;99.90;;;;;;5042985;28;20068;-73
2023/08/17 02:01:32;;;;;;;7.20;1.90;;;16.10;99.90;;;;;;5045861;28;20061;-73
2023/08/17 02:04:01;;;;;;;2.85;1.58;;;16.10;99.90;;;;;;5022901;28;20123;-73
2023/08/17 02:06:28;;;;;;;2.78;2.10;;;16.10;99.90;;;;;;5037798;28;20397;-73
2023/08/17 02:08:54;;;;;;;4.60;1.77;;;16.10;99.90;;;;;;5040700;28;20041;-73
2023/08/17 02:11:19;;;;;;;6.25;2.42;;;16.10;99.90;;;;;;5041709;28;20033;-73
2023/08/17 02:13:45;;;;;;;5.10;2.47;;;16.00;99.90;;;;;;5041401;28;20483;-72
2023/08/17 02:16:11;;;;;;;4.25;2.65;;;16.00;99.90;;;;;;5041688;28;20037;-73
2023/08/17 02:18:39;;;;;;;4.95;2.10;;;16.00;99.90;;;;;;5045831;28;20116;-73
2023/08/17 02:21:07;;;;;;;6.45;2.25;;;16.00;99.90;;;;;;5034908;28;20100;-73
2023/08/17 02:23:33;;;;;;;4.43;1.90;;;15.90;99.90;;;;;;5047507;28;20361;-73
2023/08/17 02:25:58;;;;;;;5.57;2.17;;;16.00;99.90;;;;;;5039115;28;20040;-73
2023/08/17 02:28:24;;;;;;;7.15;2.47;;;16.00;99.90;;;;;;5042320;28;20522;-73
2023/08/17 02:30:58;;;;;;;4.00;2.35;;;16.00;99.90;;;;;;5026254;28;20528;-73
2023/08/17 02:33:24;;;;;;;6.90;2.28;;;15.90;99.90;;;;;;5048320;28;20060;-73
2023/08/17 02:35:50;;;;;;;6.22;2.20;;;15.90;99.90;;;;;;5044613;28;20044;-73
2023/08/17 02:38:16;;;;;;;4.15;2.08;;;15.90;99.90;;;;;;5045345;28;20041;-73
2023/08/17 02:40:44;;;;;;;4.72;2.30;;;15.90;99.90;;;;;;5046471;28;20162;-73
2023/08/17 02:43:10;;;;;;;5.97;2.28;;;15.90;99.90;;;;;;5049232;28;20037;-73
2023/08/17 02:45:36;;;;;;;6.93;2.58;;;15.90;99.90;;;;;;5029975;28;20403;-73
2023/08/17 02:48:01;;;;;;;5.88;2.20;;;15.90;99.90;;;;;;5041681;28;20045;-73
2023/08/17 02:50:27;;;;;;;8.23;2.63;;;15.90;99.90;;;;;;5049150;28;20075;-73
2023/08/17 02:52:53;;;;;;;7.65;2.55;;;15.80;99.90;;;;;;5048784;28;20430;-73
2023/08/17 02:55:19;;;;;;;6.00;2.67;;;15.80;99.90;;;;;;5049474;28;20045;-73
2023/08/17 02:57:44;;;;;;;5.65;2.10;;;15.80;99.90;;;;;;5031642;28;20151;-73
2023/08/17 03:00:10;;;;;;;4.75;1.98;;;15.80;99.90;;;;;;5048980;28;20041;-73
2023/08/17 03:02:37;;;;;;;5.78;2.80;;;15.80;99.90;;;;;;5045310;28;20510;-73
2023/08/17 03:05:03;;;;;;;;;;;15.70;99.90;;;;;;5032787;28;20057;-73
2023/08/17 03:07:28;;;;;;;4.28;2.05;;;15.70;99.90;;;;;;5041123;28;20010;-73
2023/08/17 03:09:54;;;;;;;4.97;2.10;;;15.70;99.90;;;;;;5045601;28;20455;-73
2023/08/17 03:12:19;;;;;;;4.30;2.38;;;15.70;99.90;;;;;;5046298;28;20049;-73
2023/08/17 03:14:46;;;;;;;11.77;2.28;;;15.70;99.90;;;;;;5048777;28;20045;-73
2023/08/17 03:17:12;;;;;;;7.32;2.38;;;15.70;99.90;;;;;;5049994;28;20044;-73
2023/08/17 03:19:37;;;;;;;3.17;2.30;;;15.70;99.90;;;;;;5048553;28;20106;-73
2023/08/17 03:22:03;;;;;;;9.10;2.38;;;15.70;99.90;;;;;;5045794;28;20041;-73
2023/08/17 03:24:28;;;;;;;5.10;2.10;;;15.60;99.90;;;;;;5042014;28;20049;-73
2023/08/17 03:26:54;;;;;;;4.65;2.70;;;15.60;99.90;;;;;;5046834;28;20045;-73
2023/08/17 03:29:22;;;;;;;6.30;2.28;;;15.60;99.90;;;;;;5042115;28;20045;-73
2023/08/17 03:31:49;;;;;;;6.30;2.65;;;15.60;99.90;;;;;;5040862;28;20067;-73
2023/08/17 03:34:17;;;;;;;6.88;2.53;;;15.60;99.90;;;;;;5024606;28;20098;-73
2023/08/17 03:36:43;;;;;;;5.43;2.17;;;15.60;99.90;;;;;;5045296;28;20037;-73
2023/08/17 03:39:08;;;;;;;5.78;2.50;;;15.60;99.90;;;;;;5043616;28;20061;-73
2023/08/17 03:41:36;;;;;;;6.13;2.42;;;15.60;99.90;;;;;;5043784;28;20127;-72
2023/08/17 03:44:03;;;;;;;3.85;2.22;;;15.60;99.90;;;;;;5038892;28;20427;-73
2023/08/17 03:46:29;;;;;;;5.93;2.80;;;15.60;99.90;;;;;;5042899;28;20452;-73
2023/08/17 03:48:55;;;;;;;3.67;1.95;;;15.60;99.90;;;;;;5046826;28;20041;-73
2023/08/17 03:51:20;;;;;;;5.35;2.30;;;15.60;99.90;;;;;;5043209;28;20199;-73
2023/08/17 03:53:46;;;;;;;6.60;2.45;;;15.50;99.90;;;;;;5041788;28;20254;-73
2023/08/17 03:56:14;;;;;;;8.63;2.47;;;15.50;99.90;;;;;;5040563;28;20037;-73
2023/08/17 03:58:41;;;;;;;5.10;3.05;;;15.50;99.90;;;;;;5047982;28;20044;-73
2023/08/17 04:01:07;;;;;;;7.80;2.28;;;15.50;99.90;;;;;;5042700;28;20041;-73
2023/08/17 04:03:32;;;;;;;6.82;2.65;;;15.50;99.90;;;;;;5047763;28;20124;-73
2023/08/17 04:05:58;;;;;;;4.95;1.95;;;15.40;99.90;;;;;;5045691;28;20064;-73
2023/08/17 04:08:23;;;;;;;6.43;2.58;;;15.50;99.90;;;;;;5038070;28;20033;-73
2023/08/17 04:10:49;;;;;;;7.22;3.13;;;15.50;99.90;;;;;;5040804;28;20131;-73
2023/08/17 04:13:15;;;;;;;5.10;2.50;;;15.40;99.90;;;;;;5039698;28;20057;-73
2023/08/17 04:15:40;;;;;;;4.50;1.90;;;15.50;99.90;;;;;;5041896;28;20049;-73
2023/08/17 04:18:06;;;;;;;4.63;2.65;;;15.50;99.90;;;;;;5042057;28;20428;-73
2023/08/17 04:20:32;;;;;;;7.43;3.00;;;15.40;99.90;;;;;;5041296;28;20634;-73
2023/08/17 04:22:57;;;;;;;6.32;2.65;;;15.40;99.90;;;;;;5047586;28;20044;-73
2023/08/17 04:25:23;;;;;;;5.20;3.03;;;15.40;99.90;;;;;;5043111;28;20045;-73
2023/08/17 04:27:49;;;;;;;5.95;2.40;;;15.40;99.90;;;;;;5037972;28;20117;-73
2023/08/17 04:30:14;;;;;;;4.95;2.90;;;15.40;99.90;;;;;;5040657;28;20174;-73
2023/08/17 04:32:43;;;;;;;5.75;2.22;;;15.40;99.90;;;;;;5044212;28;20486;-73
2023/08/17 04:35:09;;;;;;;7.63;2.67;;;15.30;99.90;;;;;;5029662;28;20045;-73
2023/08/17 04:37:35;;;;;;;5.60;2.10;;;15.30;99.90;;;;;;5046507;28;20049;-73
2023/08/17 04:40:01;;;;;;;5.47;2.45;;;15.30;99.90;;;;;;5042420;28;20045;-73
2023/08/17 04:42:27;;;;;;;4.43;2.35;;;15.30;99.90;;;;;;5043292;28;20119;-73
2023/08/17 04:44:52;;;;;;;7.32;2.08;;;15.30;99.90;;;;;;5045622;28;20098;-73
2023/08/17 04:47:18;;;;;;;9.20;2.40;;;15.30;99.90;;;;;;5043935;28;20212;-73
2023/08/17 04:49:44;;;;;;;5.97;2.33;;;15.30;99.90;;;;;;5044339;28;20227;-73
2023/08/17 04:52:09;;;;;;;7.13;2.47;;;15.30;99.90;;;;;;5048065;28;20052;-72
2023/08/17 04:54:36;;;;;;;4.50;2.28;;;15.30;99.90;;;;;;5046779;28;20090;-72
2023/08/17 04:57:03;;;;;;;6.38;2.92;;;15.30;99.90;;;;;;5043912;28;20045;-73
2023/08/17 04:59:28;;;;;;;5.88;2.38;;;15.30;99.90;;;;;;5043096;28;20197;-73
2023/08/17 05:01:54;;;;;;;4.80;2.58;;;15.30;99.90;;;;;;5044711;28;20344;-73
2023/08/17 05:04:20;;;;;;;6.28;2.33;;;15.30;99.90;;;;;;5044296;28;20129;-73
2023/08/17 05:06:45;;;;;;;4.10;1.85;;;15.30;99.90;;;;;;5038860;28;20594;-73
2023/08/17 05:09:11;;;;;;;7.60;2.35;;;15.30;99.90;;;;;;5044970;28;20056;-73
2023/08/17 05:11:37;;;;;;;3.80;2.08;;;15.30;99.90;;;;;;5039456;28;20046;-73
2023/08/17 05:14:03;;;;;;;4.28;2.33;;;15.40;99.90;;;;;;5040353;28;20041;-74
2023/08/17 05:16:28;;;;;;;4.30;2.50;;;15.40;99.90;;;;;;5045032;28;20382;-73
2023/08/17 05:18:54;;;;;;;4.13;1.88;;;15.40;99.90;;;;;;5046335;28;20045;-73
2023/08/17 05:21:20;;;;;;;6.70;2.47;;;15.40;99.90;;;;;;5045228;28;20072;-73
2023/08/17 05:23:45;;;;;;;4.65;2.03;;;15.50;99.90;;;;;;5042861;28;20055;-73
2023/08/17 05:26:11;;;;;;;3.35;1.98;;;15.50;99.90;;;;;;5043603;28;20435;-73
2023/08/17 05:28:37;;;;;;;4.90;2.17;;;15.60;99.90;;;;;;5027235;28;20033;-73
2023/08/17 05:31:06;;;;;;;6.60;2.00;;;15.60;99.90;;;;;;5047442;28;20058;-73
2023/08/17 05:33:32;;;;;;;3.58;1.98;;;15.70;99.90;;;;;;5038007;28;20064;-73
2023/08/17 05:35:58;;;;;;;4.22;2.05;;;15.80;99.90;;;;;;5045179;28;20051;-73
2023/08/17 05:38:23;;;;;;;3.75;2.10;;;15.80;99.90;;;;;;5046384;28;20178;-73
2023/08/17 05:40:55;;;;;;;3.33;2.00;;;15.90;99.90;;;;;;5046852;28;20196;-72
2023/08/17 05:43:20;;;;;;;2.42;1.50;;;16.00;99.90;;;;;;5041929;28;20128;-73
2023/08/17 05:45:46;;;;;;;3.33;1.42;;;16.00;99.90;;;;;;5045968;28;20117;-73
2023/08/17 05:48:12;;;;;;;3.20;1.65;;;16.10;99.90;;;;;;5045556;28;20040;-73
2023/08/17 05:50:41;;;;;;;3.13;1.42;;;16.10;99.90;;;;;;5041268;28;20049;-74
2023/08/17 05:53:07;;;;;;;4.95;2.13;;;16.10;99.90;;;;;;5034235;28;20095;-73
2023/08/17 05:55:33;;;;;;;;;;;16.20;99.90;;;;;;5043581;28;20045;-73
2023/08/17 05:57:59;;;;;;;4.20;1.40;;;16.20;99.90;;;;;;5045853;28;19917;-71
2023/08/17 06:00:24;;;;;;;2.88;1.08;;;16.20;99.90;;;;;;5042476;28;20084;-71
2023/08/17 06:02:51;;;;;;;4.63;1.35;;;16.20;99.90;;;;;;5037473;28;20439;-71
2023/08/17 06:05:17;;;;;;;4.78;1.45;;;16.20;99.90;;;;;;5039094;28;20128;-71
2023/08/17 06:07:43;;;;;;;2.92;1.00;;;16.30;99.90;;;;;;5042251;28;20068;-72
2023/08/17 06:10:10;;;;;;;3.13;1.02;;;16.30;99.90;;;;;;5038848;28;20080;-71
2023/08/17 06:12:35;;;;;;;2.50;1.15;;;16.40;99.90;;;;;;5041349;28;20064;-71
2023/08/17 06:15:05;;;;;;;5.32;1.25;;;16.40;99.90;;;;;;5043547;28;20040;-73
2023/08/17 06:17:31;;;;;;;3.38;0.90;;;16.50;99.90;;;;;;5037554;28;20451;-74
2023/08/17 06:19:56;;;;;;;4.00;0.93;;;16.60;99.90;;;;;;5042519;28;20051;-75
2023/08/17 06:22:22;;;;;;;2.53;1.13;;;16.60;99.90;;;;;;5038892;28;20058;-75
2023/08/17 06:24:47;;;;;;;1.92;0.80;;;16.70;99.90;;;;;;5024220;28;20597;-75
2023/08/17 06:27:15;;;;;;;3.70;0.98;;;16.80;99.90;;;;;;5038346;28;20037;-74
2023/08/17 06:29:41;;;;;;;3.17;0.85;;;16.90;99.90;;;;;;5037869;28;20441;-75
2023/08/17 06:32:09;;;;;;;4.20;0.93;;;17.00;99.90;;;;;;5043750;28;20085;-76
2023/08/17 06:34:34;;;;;;;5.25;1.20;;;17.00;99.90;;;;;;5035679;28;20064;-73
2023/08/17 06:37:05;;;;;;;1.77;0.93;;;17.10;99.90;;;;;;5041266;28;20458;-76
2023/08/17 06:39:31;;;;;;;4.53;1.27;;;17.10;99.90;;;;;;5036218;28;20076;-73
2023/08/17 06:41:56;;;;;;;2.95;1.00;;;17.20;99.90;;;;;;5039424;28;20068;-73
2023/08/17 06:44:22;;;;;;;3.00;0.70;;;17.30;99.90;;;;;;5040136;28;20482;-73
2023/08/17 06:46:48;;;;;;;5.20;1.40;;;17.30;99.90;;;;;;5022582;28;20419;-73
2023/08/17 06:49:13;;;;;;;5.68;1.40;;;17.30;99.90;;;;;;5040799;28;20041;-73
2023/08/17 06:51:39;;;;;;;4.88;1.02;;;17.40;99.90;;;;;;5034005;28;20045;-73
2023/08/17 06:54:09;;;;;;;2.05;0.85;;;17.50;99.90;;;;;;5040310;28;20060;-72
2023/08/17 06:56:35;;;;;;;3.67;1.27;;;17.50;99.90;;;;;;5039598;28;20037;-71
2023/08/17 06:59:01;;;;;;;3.08;1.20;;;17.50;99.90;;;;;;5044019;28;20398;-77
2023/08/17 07:01:26;;;;;;;3.83;1.13;;;17.60;99.90;;;;;;5027712;28;20043;-72
2023/08/17 07:03:52;;;;;;;2.03;1.00;;;17.60;99.90;;;;;;5045783;28;20138;-71
2023/08/17 07:06:17;;;;;;;6.55;1.10;;;17.70;99.90;;;;;;5045275;28;20144;-72
2023/08/17 07:08:43;;;;;;;5.57;1.15;;;17.70;99.90;;;;;;5021183;28;20040;-72
2023/08/17 07:11:09;;;;;;;2.88;0.90;;;17.80;99.90;;;;;;5027062;28;20045;-72
2023/08/17 07:13:35;;;;;;;7.03;1.30;;;17.80;99.90;;;;;;5046967;28;20033;-71
2023/08/17 07:16:00;;;;;;;5.50;1.38;;;17.80;99.90;;;;;;5049015;28;20053;-72
2023/08/17 07:18:26;;;;;;;5.05;1.00;;;17.90;99.90;;;;;;5043284;28;20098;-72
2023/08/17 07:20:51;;;;;;;9.57;1.33;;;17.90;99.90;;;;;;5048649;28;20119;-71
2023/08/17 07:23:17;;;;;;;2.45;1.00;;;18.00;99.90;;;;;;5042560;28;20363;-72
2023/08/17 07:25:44;;;;;;;4.55;0.80;;;18.10;99.90;;;;;;5044980;28;20496;-73
2023/08/17 07:28:09;;;;;;;1.70;0.88;;;18.20;99.90;;;;;;5048096;28;20115;-74
2023/08/17 07:30:35;;;;;;;4.05;1.17;;;18.20;99.90;;;;;;5043472;28;20129;-73
2023/08/17 07:33:01;;;;;;;4.35;1.08;;;18.30;99.90;;;;;;5034172;28;20353;-72
2023/08/17 07:35:26;;;;;;;3.42;0.60;;;18.20;99.90;;;;;;5042234;28;20059;-74
2023/08/17 07:37:52;;;;;;;2.13;0.98;;;18.20;99.90;;;;;;5049726;28;20053;-73
2023/08/17 07:40:18;;;;;;;3.97;0.98;;;18.20;99.90;;;;;;5055844;28;20049;-74
2023/08/17 07:42:45;;;;;;;3.90;0.93;;;18.20;99.90;;;;;;5049948;28;20098;-75
2023/08/17 07:45:11;;;;;;;2.30;1.08;;;18.10;99.90;;;;;;5048806;28;20460;-74
2023/08/17 07:47:37;;;;;;;3.97;0.60;;;18.10;99.90;;;;;;5044551;28;20060;-72
2023/08/17 07:50:04;;;;;;;4.07;1.00;;;18.10;99.90;;;;;;5045632;28;20053;-73
2023/08/17 07:52:30;;;;;;;1.27;0.65;;;18.20;99.90;;;;;;5045067;28;20485;-73
2023/08/17 07:54:56;;;;;;;4.03;1.23;;;18.20;99.90;;;;;;5041805;28;20046;-74
2023/08/17 07:57:22;;;;;;;6.53;1.25;;;18.20;99.90;;;;;;5047541;28;20151;-72
2023/08/17 07:59:47;;;;;;;1.75;0.90;;;18.20;99.90;;;;;;5048914;28;20044;-74
2023/08/17 08:02:13;;;;;;;4.80;0.93;;;18.20;99.90;;;;;;5045892;28;20056;-71
2023/08/17 08:04:39;;;;;;;1.88;0.70;;;18.20;99.90;;;;;;5043305;28;20036;-72
2023/08/17 08:07:05;;;;;;;1.75;0.63;;;18.30;99.90;;;;;;5040513;28;20081;-73
2023/08/17 08:09:31;;;;;;;;;;;18.40;99.90;;;;;;5048599;28;20163;-71
2023/08/17 08:11:56;;;;;;;2.33;0.90;;;18.40;99.90;;;;;;5049819;28;19924;-72
2023/08/17 08:14:22;;;;;;;2.30;1.00;;;18.50;99.90;;;;;;5044804;28;20044;-76
2023/08/17 08:16:48;;;;;;;6.90;1.08;;;18.70;99.90;;;;;;5024511;28;20053;-77
2023/08/17 08:19:13;;;;;;;2.88;0.68;;;18.80;99.90;;;;;;5027772;28;20055;-72
2023/08/17 08:21:39;;;;;;;4.80;0.77;;;18.90;99.90;;;;;;5042730;28;20044;-74
2023/08/17 08:24:05;;;;;;;5.43;1.10;;;19.10;99.90;;;;;;5035012;28;20041;-76
2023/08/17 08:26:30;;;;;;;2.80;0.80;;;19.20;99.90;;;;;;5039099;28;20450;-73
2023/08/17 08:28:56;;;;;;;1.65;0.60;;;19.30;99.90;;;;;;5040643;28;20068;-70
2023/08/17 08:31:22;;;;;;;2.63;0.70;;;19.40;99.90;;;;;;5038603;28;20363;-79
2023/08/17 08:33:47;;;;;;;1.40;0.60;;;19.40;99.90;;;;;;5042822;28;20507;-78
2023/08/17 08:36:13;;;;;;;4.57;0.77;;;19.50;99.90;;;;;;5041282;28;20044;-71
2023/08/17 08:38:39;;;;;;;3.88;0.52;;;19.50;99.90;;;;;;5045357;28;20047;-74
2023/08/17 08:41:08;;;;;;;4.25;0.70;;;19.50;99.90;;;;;;5042854;28;20493;-71
2023/08/17 08:43:34;;;;;;;3.90;0.85;;;19.50;99.90;;;;;;5039511;28;20041;-71
2023/08/17 08:46:00;;;;;;;2.80;0.85;;;19.60;99.90;;;;;;5041764;28;20554;-72
2023/08/17 08:48:27;;;;;;;1.02;0.50;;;19.70;99.90;;;;;;5025157;28;20163;-71
2023/08/17 08:50:56;;;;;;;4.13;0.80;;;19.80;99.90;;;;;;5043267;28;20120;-72
2023/08/17 08:53:31;;;;;;;2.80;0.60;;;19.80;99.90;;;;;;5041435;28;20048;-71
2023/08/17 08:56:01;;;;;;;3.70;0.75;;;19.90;99.90;;;;;;5046190;28;20178;-72
2023/08/17 08:58:28;;;;;;;4.38;1.00;;;20.10;99.90;;;;;;5038934;28;20033;-71
2023/08/17 09:00:54;;;;;;;3.28;0.70;;;20.10;99.90;;;;;;5046621;28;20122;-72
2023/08/17 09:03:21;;;;;;;4.53;1.02;;;20.10;99.90;;;;;;5040429;28;20045;-71
2023/08/17 09:05:50;;;;;;;3.00;0.63;;;20.00;99.90;;;;;;5023903;28;20391;-71
2023/08/17 09:08:22;;;;;;;1.85;0.50;;;20.00;99.90;;;;;;5038837;28;20178;-71
2023/08/17 09:10:49;;;;;;;0.80;0.40;;;20.00;99.90;;;;;;5043378;28;20132;-71
2023/08/17 09:13:14;;;;;;;;;;;20.00;99.90;;;;;;5046052;28;20666;-71
2023/08/17 09:15:40;;;;;;;1.65;0.65;;;19.90;99.90;;;;;;5043282;28;19970;-71
2023/08/17 09:18:09;;;;;;;2.38;0.60;;;19.90;99.90;;;;;;5019660;28;20041;-71
2023/08/17 09:20:45;;;;;;;1.50;0.68;;;19.90;99.90;;;;;;5049818;28;20049;-72
2023/08/17 09:23:22;;;;;;;3.00;0.80;;;20.00;99.90;;;;;;5029123;28;20037;-71
2023/08/17 09:25:51;;;;;;;1.10;0.60;;;20.00;99.90;;;;;;5047203;28;20072;-71
2023/08/17 09:28:19;;;;;;;3.70;1.02;;;20.20;99.90;;;;;;5030161;28;20080;-71
2023/08/17 09:30:53;;;;;;;2.47;0.90;;;20.40;99.90;;;;;;5039045;28;20115;-71
2023/08/17 09:33:24;;;;;;;3.13;0.73;;;20.50;99.90;;;;;;5042979;28;20087;-71
2023/08/17 09:35:50;;;;;;;3.72;1.17;;;20.60;99.90;;;;;;5020951;28;20049;-71
2023/08/17 09:38:17;;;;;;;2.72;0.68;;;20.70;99.90;;;;;;5036871;28;20045;-71
2023/08/17 09:40:43;;;;;;;2.65;0.88;;;20.80;99.90;;;;;;5046803;28;20048;-71
2023/08/17 09:43:09;;;;;;;;;;;20.90;99.90;;;;;;5046074;28;20044;-71
2023/08/17 09:45:39;;;;;;;3.85;1.00;;;20.90;99.90;;;;;;5048311;28;20385;-71
2023/08/17 09:48:08;;;;;;;2.83;0.80;;;21.00;99.90;;;;;;5022985;28;20111;-72
2023/08/17 09:50:35;;;;;;;3.53;0.80;;;21.10;99.90;;;;;;5044825;28;20044;-71
2023/08/17 09:53:04;;;;;;;2.55;0.85;;;21.10;99.90;;;;;;5046023;28;20099;-72
2023/08/17 09:55:34;;;;;;;2.28;0.77;;;21.10;99.90;;;;;;5029521;28;20044;-71
2023/08/17 09:58:00;;;;;;;6.00;1.15;;;21.20;99.90;;;;;;5037801;28;20128;-71
2023/08/17 10:00:28;;;;;;;7.03;0.88;;;21.20;99.90;;;;;;5041703;28;20159;-72
2023/08/17 10:02:54;;;;;;;2.95;0.68;;;21.30;99.90;;;;;;5026849;28;20036;-71
2023/08/17 10:05:20;;;;;;;6.15;0.85;;;21.40;99.90;;;;;;5046714;28;20123;-71
2023/08/17 10:07:51;;;;;;;1.95;0.82;;;21.40;99.90;;;;;;5045874;28;20040;-72
2023/08/17 10:10:27;;;;;;;3.17;0.75;;;21.50;99.90;;;;;;5025171;28;20134;-71
2023/08/17 10:13:06;;;;;;;4.68;0.88;;;21.60;99.90;;;;;;5046499;28;20045;-72
2023/08/17 10:15:36;;;;;;;5.32;0.88;;;21.70;99.90;;;;;;5046155;28;20075;-71
2023/08/17 10:18:20;;;;;;;4.80;1.00;;;21.80;99.90;;;;;;5029469;28;20045;-71
2023/08/17 10:20:54;;;;;;;1.65;0.68;;;21.70;99.90;;;;;;5042049;28;20140;-71
2023/08/17 10:23:22;;;;;;;2.10;0.60;;;21.70;99.90;;;;;;5042988;28;20040;-72
2023/08/17 10:25:50;;;;;;;2.70;0.70;;;21.60;99.90;;;;;;5038425;28;20038;-71
2023/08/17 10:28:17;;;;;;;4.93;1.00;;;21.50;99.90;;;;;;5042427;28;20224;-71
2023/08/17 10:30:43;;;;;;;5.78;1.10;;;21.50;99.90;;;;;;5044380;28;20052;-71
2023/08/17 10:33:09;;;;;;;3.13;1.05;;;21.50;99.90;;;;;;5044483;28;20073;-71
2023/08/17 10:35:38;;;;;;;4.82;0.82;;;21.50;99.90;;;;;;5040496;28;20406;-71
2023/08/17 10:38:04;;;;;;;4.35;0.63;;;21.40;99.90;;;;;;5047391;28;20044;-71
2023/08/17 10:40:42;;;;;;;3.42;0.80;;;21.50;99.90;;;;;;5045277;28;20036;-71
2023/08/17 10:43:08;;;;;;;3.55;0.93;;;21.50;99.90;;;;;;5037879;28;20053;-72
2023/08/17 10:45:35;;;;;;;;;;;21.50;99.90;;;;;;5043658;28;20312;-73
2023/08/17 10:48:07;;;;;;;3.53;0.73;;;21.50;99.90;;;;;;5044792;28;19964;-74
2023/08/17 10:50:34;;;;;;;5.85;1.30;;;21.50;99.90;;;;;;5028827;28;20052;-73
2023/08/17 10:53:08;;;;;;;4.55;0.77;;;21.50;99.90;;;;;;5042944;28;20048;-75
2023/08/17 10:55:42;;;;;;;3.95;0.80;;;21.60;99.90;;;;;;5048344;28;20053;-71
2023/08/17 10:58:08;;;;;;;3.65;0.73;;;21.70;99.90;;;;;;5046004;28;20044;-70
2023/08/17 11:00:36;;;;;;;3.47;0.80;;;21.90;99.90;;;;;;5050851;28;20467;-70
2023/08/17 11:03:09;;;;;;;1.95;0.65;;;22.10;99.90;;;;;;5033268;28;20156;-71
2023/08/17 11:05:49;;;;;;;4.32;0.93;;;22.20;99.90;;;;;;5045467;28;20045;-70
2023/08/17 11:08:31;;;;;;;6.35;1.00;;;22.30;99.90;;;;;;5048816;28;20115;-70
2023/08/17 11:11:13;;;;;;;4.85;0.90;;;22.40;99.90;;;;;;5041584;28;20525;-71
2023/08/17 11:13:44;;;;;;;2.45;0.80;;;22.40;99.90;;;;;;5042216;28;20518;-71
2023/08/17 11:16:11;;;;;;;2.67;1.08;;;22.40;99.90;;;;;;5036498;28;20041;-70
2023/08/17 11:18:38;;;;;;;2.60;0.95;;;22.50;99.90;;;;;;5032896;28;20171;-71
2023/08/17 11:21:05;;;;;;;7.10;0.73;;;22.60;99.90;;;;;;5050125;28;20045;-71
2023/08/17 11:23:34;;;;;;;2.45;0.60;;;22.70;99.90;;;;;;5031993;28;20390;-71
2023/08/17 11:26:00;;;;;;;4.88;1.00;;;22.70;99.90;;;;;;5045059;28;20382;-71
2023/08/17 11:28:27;;;;;;;5.47;1.10;;;22.80;99.90;;;;;;5041657;28;20051;-71
2023/08/17 11:31:04;;;;;;;3.00;1.05;;;23.00;99.90;;;;;;5049331;28;20235;-71
2023/08/17 11:33:31;;;;;;;2.20;0.85;;;23.10;99.90;;;;;;5050310;28;20487;-71
2023/08/17 11:35:58;;;;;;;3.72;0.77;;;23.00;99.90;;;;;;5041923;28;20052;-71
2023/08/17 11:38:25;;;;;;;5.22;1.00;;;22.90;99.90;;;;;;5048161;28;20049;-70
2023/08/17 11:40:51;;;;;;;4.65;0.90;;;22.80;99.90;;;;;;5039303;28;20111;-70
2023/08/17 11:43:18;;;;;;;4.40;1.10;;;22.60;99.90;;;;;;5048865;28;20514;-70
2023/08/17 11:45:44;;;;;;;2.92;1.00;;;22.60;99.90;;;;;;5043348;28;20037;-71
2023/08/17 11:48:10;;;;;;;;;;;22.50;99.90;;;;;;5045853;28;20039;-70
2023/08/17 11:50:36;;;;;;;3.10;0.90;;;22.50;99.90;;;;;;5053406;28;19920;-70
2023/08/17 11:53:03;;;;;;;5.05;1.30;;;22.50;99.90;;;;;;5041257;28;20080;-71
2023/08/17 11:55:30;;;;;;;1.85;0.90;;;22.50;99.90;;;;;;5047170;28;20048;-71
2023/08/17 11:57:55;;;;;;;;;;;22.50;99.90;;;;;;5044471;28;20122;-71
2023/08/17 12:00:22;;;;;;;2.10;0.90;;;22.50;99.90;;;;;;5045902;28;19921;-71
2023/08/17 12:02:52;;;;;;;3.20;0.73;;;22.60;99.90;;;;;;5048697;28;20037;-71
2023/08/17 12:05:28;;;;;;;3.17;0.77;;;22.60;99.90;;;;;;5047726;28;20486;-71
2023/08/17 12:07:54;;;;;;;;;;;22.50;99.90;;;;;;5046791;28;20112;-70
2023/08/17 12:10:22;;;;;;;5.03;1.10;;;22.40;99.90;;;;;;5047116;28;20011;-71
2023/08/17 12:12:48;;;;;;;3.20;1.15;;;22.30;99.90;;;;;;5048574;28;20136;-71
2023/08/17 12:15:17;;;;;;;1.70;0.80;;;22.20;99.90;;;;;;5041706;28;20056;-70
2023/08/17 12:17:47;;;;;;;3.75;1.00;;;22.10;99.90;;;;;;5044773;28;20434;-71
2023/08/17 12:20:20;;;;;;;5.60;1.10;;;22.10;99.90;;;;;;5046853;28;20080;-71
2023/08/17 12:22:47;;;;;;;4.25;1.02;;;22.00;99.90;;;;;;5023866;28;20052;-71
2023/08/17 12:25:13;;;;;;;3.38;1.10;;;22.00;99.90;;;;;;5038923;28;20112;-71
2023/08/17 12:27:39;;;;;;;5.18;1.30;;;22.00;99.90;;;;;;5037002;28;20093;-72
2023/08/17 12:30:11;;;;;;;;;;;21.90;99.90;;;;;;5030912;28;20049;-72
2023/08/17 12:32:37;;;;;;;3.42;1.00;;;21.70;99.90;;;;;;5033720;28;19996;-71
2023/08/17 12:35:03;;;;;;;;;;;21.60;99.90;;;;;;5027889;28;20089;-71
2023/08/17 12:37:29;;;;;;;3.20;1.30;;;21.50;99.90;;;;;;5047566;28;19917;-71
2023/08/17 12:39:55;;;;;;;;;;;21.50;99.90;;;;;;5047381;28;20455;-71
2023/08/17 12:42:20;;;;;;;2.30;0.95;;;21.50;99.90;;;;;;5047160;28;19943;-71
2023/08/17 12:44:46;;;;;;;;;;;21.50;99.90;;;;;;5047933;28;20051;-70
2023/08/17 12:47:11;;;;;;;3.08;1.15;;;21.40;99.90;;;;;;5041770;28;19940;-70
2023/08/17 12:49:37;;;;;;;3.20;0.90;;;21.50;99.90;;;;;;5042886;28;20053;-71